Olib — 9AA6266 — position and weather

sailwx.info

Track history (hours):
 
Tides and Currents Weather Stations Pressure Air Temp Water Temp Dewpoint Dewpoint Depression Visibility Wind Speed Wind Dir Waves Ship Positions

Olib

Last reported at 2014-Aug-31 03:33 UTC. Time now 2014-Aug-31 08:36 UTC.
Position N 59°45' E 024°37'.

Length 247 m; draft 8.3 m.

Type: Ship. MMSI: 238252000.

Date/timePositionNaut miles runAvg speedWind from/ knotsBaromVisibWave heightAir tempDewpointWater temp
2014-Aug-31 03:33N 59°45' E 024°37'1511.2
2014-Aug-31 02:13N 59°41' E 024°09'811.6
2014-Aug-31 01:33N 59°38' E 023°54'1211.7
2014-Aug-31 00:34N 59°34' E 023°32'1211.4
2014-Aug-30 23:29N 59°31' E 023°10'24811.1
2014-Aug-30 01:17N 56°12' E 018°31'911.5
2014-Aug-30 00:32N 56°08' E 018°18'1111.5
2014-Aug-29 23:32N 56°02' E 018°01'1111.4
2014-Aug-29 22:33N 55°56' E 017°44'1111.3
2014-Aug-29 21:33N 55°53' E 017°24'1111.3
2014-Aug-29 20:33N 55°50' E 017°05'1111.3
2014-Aug-29 19:33N 55°47' E 016°45'1211.5
2014-Aug-29 18:33N 55°45' E 016°25'1311.6
2014-Aug-29 17:25N 55°42' E 016°03'1311.4
2014-Aug-29 16:19N 55°39' E 015°41'911.4
2014-Aug-29 15:32N 55°36' E 015°26'1111.6
2014-Aug-29 14:32N 55°31' E 015°08'1212.3
2014-Aug-29 13:33N 55°26' E 014°48'1312.9
2014-Aug-29 12:33N 55°18' E 014°31'1312.6
2014-Aug-29 11:33N 55°08' E 014°17'1211.6
2014-Aug-29 10:33N 55°00' E 014°02'1211.8
2014-Aug-29 09:33N 54°56' E 013°43'1212.0
2014-Aug-29 08:33N 54°52' E 013°23'1211.7
2014-Aug-29 07:33N 54°49' E 013°03'1211.7
2014-Aug-29 06:33N 54°45' E 012°45'1211.9
2014-Aug-29 05:33N 54°39' E 012°27'1110.8
2014-Aug-29 04:33N 54°31' E 012°14'1010.0
2014-Aug-29 03:33N 54°25' E 012°00'1111.1
2014-Aug-29 02:33N 54°26' E 011°41'1111.4
2014-Aug-29 01:33N 54°32' E 011°24'1010.4
2014-Aug-29 00:33N 54°36' E 011°08'1110.5
2014-Aug-28 23:33N 54°42' E 010°52'89 9.8
2014-Aug-28 14:27N 56°11' E 011°05'1312.1
2014-Aug-28 13:22N 56°24' E 011°05'1110.9
2014-Aug-28 12:23N 56°31' E 011°20'1011.6
2014-Aug-28 11:33N 56°37' E 011°34'1111.4
2014-Aug-28 10:33N 56°44' E 011°50'1111.1
2014-Aug-28 09:33N 56°55' E 011°46'1211.7
2014-Aug-28 08:33N 57°06' E 011°38'1212.0
2014-Aug-28 07:33N 57°17' E 011°31'1212.0
2014-Aug-28 06:33N 57°28' E 011°23'1211.7
2014-Aug-28 05:33N 57°36' E 011°07'1212.1
2014-Aug-28 04:33N 57°45' E 010°51'1010.4
2014-Aug-28 03:33N 57°49' E 010°33'1211.6
2014-Aug-28 02:33N 57°47' E 010°11'3511.6
2014-Aug-27 23:34N 57°38' E 009°08'1211.8
2014-Aug-27 22:33N 57°32' E 008°49'1212.0
2014-Aug-27 21:33N 57°28' E 008°28'1212.1
2014-Aug-27 20:32N 57°22' E 008°08'31711.3
2014-Aug-26 16:30N 52°52' E 003°17'1212.4
2014-Aug-26 15:32N 52°41' E 003°08'1313.2
2014-Aug-26 14:33N 52°28' E 003°11'1414.2
2014-Aug-26 13:33N 52°15' E 003°20'1514.3
2014-Aug-26 12:30N 52°06' E 003°40'1212.8
2014-Aug-26 11:33N 52°01' E 003°58'1010.4
2014-Aug-26 10:33N 51°56' E 004°12'0 0.3
2014-Aug-26 09:31N 51°55' E 004°12'0 0.0
2014-Aug-26 08:31N 51°55' E 004°12'0 0.0
2014-Aug-26 07:31N 51°55' E 004°12'0 0.0
2014-Aug-26 06:31N 51°55' E 004°12'0 0.0
2014-Aug-26 05:31N 51°55' E 004°12'0 0.0
2014-Aug-26 04:31N 51°55' E 004°12'0 0.0
2014-Aug-26 03:31N 51°55' E 004°12'0 0.0
2014-Aug-26 02:31N 51°55' E 004°12'0 0.0
2014-Aug-26 01:31N 51°55' E 004°12'0 0.0
2014-Aug-26 00:31N 51°55' E 004°12'0 0.0
2014-Aug-25 23:28N 51°55' E 004°12'0 0.0
2014-Aug-25 22:31N 51°55' E 004°12'0 0.0
2014-Aug-25 21:31N 51°55' E 004°12'0 0.0
2014-Aug-25 20:25N 51°55' E 004°12'0 0.0
2014-Aug-25 19:28N 51°55' E 004°12'0 0.0
2014-Aug-25 18:31N 51°55' E 004°12'0 0.0
2014-Aug-25 17:22N 51°55' E 004°12'0 0.0
2014-Aug-25 16:28N 51°55' E 004°12'0 0.0
2014-Aug-25 15:31N 51°55' E 004°12'0 0.0
2014-Aug-25 14:31N 51°55' E 004°12'0 0.0
2014-Aug-25 13:31N 51°55' E 004°12'0 0.0
2014-Aug-25 12:31N 51°55' E 004°12'0 0.0
2014-Aug-25 11:31N 51°55' E 004°12'0 0.0
2014-Aug-25 10:31N 51°55' E 004°12'0 0.0
2014-Aug-25 09:31N 51°55' E 004°12'0 0.0
2014-Aug-25 08:31N 51°55' E 004°12'0 0.0
2014-Aug-25 07:31N 51°55' E 004°12'0 0.0
2014-Aug-25 06:25N 51°55' E 004°12'0 0.0
2014-Aug-25 05:28N 51°55' E 004°12'0 0.0
2014-Aug-25 04:31N 51°55' E 004°12'0 0.0
2014-Aug-25 03:31N 51°55' E 004°12'0 0.0
2014-Aug-25 02:31N 51°55' E 004°12'0 0.0
2014-Aug-25 01:31N 51°55' E 004°12'0 0.0
2014-Aug-25 00:31N 51°55' E 004°12'0 0.0
2014-Aug-24 23:31N 51°55' E 004°12'0 0.0
2014-Aug-24 22:22N 51°55' E 004°12'0 0.0
2014-Aug-24 21:28N 51°55' E 004°12'0 0.0
2014-Aug-24 20:28N 51°55' E 004°12'0 0.0
2014-Aug-24 19:28N 51°55' E 004°12'0 0.0
2014-Aug-24 18:28N 51°55' E 004°12'0 0.0
2014-Aug-24 17:31N 51°55' E 004°12'0 0.0
2014-Aug-24 16:31N 51°55' E 004°12'0 0.0
2014-Aug-24 15:31N 51°55' E 004°12'0 0.0
2014-Aug-24 14:31N 51°55' E 004°12'0 0.0
2014-Aug-24 13:31N 51°55' E 004°12'0 0.0
2014-Aug-24 12:31N 51°55' E 004°12'0 0.0
2014-Aug-24 11:31N 51°55' E 004°12'0 0.0
2014-Aug-24 10:13N 51°55' E 004°12'0 0.0
2014-Aug-24 09:25N 51°55' E 004°12'0 0.0
2014-Aug-24 08:31N 51°55' E 004°12'0 0.0
2014-Aug-24 07:31N 51°55' E 004°12'0 0.0
2014-Aug-24 06:31N 51°55' E 004°12'0 0.0
2014-Aug-24 05:31N 51°55' E 004°12'0 0.0
2014-Aug-24 04:28N 51°55' E 004°12'0 0.0
2014-Aug-24 03:31N 51°55' E 004°12'0 0.0
2014-Aug-24 02:31N 51°55' E 004°12'0 0.0
2014-Aug-24 01:28N 51°55' E 004°12'0 0.0
2014-Aug-24 00:31N 51°55' E 004°12'0 0.0
2014-Aug-23 23:31N 51°55' E 004°12'0 0.0
2014-Aug-23 22:31N 51°55' E 004°12'0 0.0
2014-Aug-23 21:31N 51°55' E 004°12'0 0.0
2014-Aug-23 20:31N 51°55' E 004°12'0 0.0
2014-Aug-23 19:31N 51°55' E 004°12'52 2.9
2014-Aug-23 01:32N 51°51' E 002°47'10 9.8
2014-Aug-23 00:31N 52°00' E 002°41'29210.4
2014-Aug-21 20:33N 56°00' W 002°01'1010.0
2014-Aug-21 19:33N 56°04' W 002°17'1010.1
2014-Aug-21 18:33N 56°07' W 002°34'1010.3
2014-Aug-21 17:33N 56°06' W 002°53'9 8.8
2014-Aug-21 16:33N 56°03' W 003°08'8 7.7
2014-Aug-21 15:33N 56°01' W 003°21'  
Track history (hours):
 
Tides and Currents Weather Stations Pressure Air Temp Water Temp Dewpoint Dewpoint Depression Visibility Wind Speed Wind Dir Waves Ship Positions

Olib

Last reported at 2014-Aug-31 03:33 UTC. Time now 2014-Aug-31 08:36 UTC.
Position N 59°45' E 024°37'.

Length 247 m; draft 8.3 m.

Type: Ship. MMSI: 238252000.

Date/timePositionNaut miles runAvg speedWind from/ knotsBaromVisibWave heightAir tempDewpointWater temp
2014-Aug-31 03:33N 59°45' E 024°37'1511.2
2014-Aug-31 02:13N 59°41' E 024°09'811.6
2014-Aug-31 01:33N 59°38' E 023°54'1211.7
2014-Aug-31 00:34N 59°34' E 023°32'1211.4
2014-Aug-30 23:29N 59°31' E 023°10'24811.1
2014-Aug-30 01:17N 56°12' E 018°31'911.5
2014-Aug-30 00:32N 56°08' E 018°18'1111.5
2014-Aug-29 23:32N 56°02' E 018°01'1111.4
2014-Aug-29 22:33N 55°56' E 017°44'1111.3
2014-Aug-29 21:33N 55°53' E 017°24'1111.3
2014-Aug-29 20:33N 55°50' E 017°05'1111.3
2014-Aug-29 19:33N 55°47' E 016°45'1211.5
2014-Aug-29 18:33N 55°45' E 016°25'1311.6
2014-Aug-29 17:25N 55°42' E 016°03'1311.4
2014-Aug-29 16:19N 55°39' E 015°41'911.4
2014-Aug-29 15:32N 55°36' E 015°26'1111.6
2014-Aug-29 14:32N 55°31' E 015°08'1212.3
2014-Aug-29 13:33N 55°26' E 014°48'1312.9
2014-Aug-29 12:33N 55°18' E 014°31'1312.6
2014-Aug-29 11:33N 55°08' E 014°17'1211.6
2014-Aug-29 10:33N 55°00' E 014°02'1211.8
2014-Aug-29 09:33N 54°56' E 013°43'1212.0
2014-Aug-29 08:33N 54°52' E 013°23'1211.7
2014-Aug-29 07:33N 54°49' E 013°03'1211.7
2014-Aug-29 06:33N 54°45' E 012°45'1211.9
2014-Aug-29 05:33N 54°39' E 012°27'1110.8
2014-Aug-29 04:33N 54°31' E 012°14'1010.0
2014-Aug-29 03:33N 54°25' E 012°00'1111.1
2014-Aug-29 02:33N 54°26' E 011°41'1111.4
2014-Aug-29 01:33N 54°32' E 011°24'1010.4
2014-Aug-29 00:33N 54°36' E 011°08'1110.5
2014-Aug-28 23:33N 54°42' E 010°52'89 9.8
2014-Aug-28 14:27N 56°11' E 011°05'1312.1
2014-Aug-28 13:22N 56°24' E 011°05'1110.9
2014-Aug-28 12:23N 56°31' E 011°20'1011.6
2014-Aug-28 11:33N 56°37' E 011°34'1111.4
2014-Aug-28 10:33N 56°44' E 011°50'1111.1
2014-Aug-28 09:33N 56°55' E 011°46'1211.7
2014-Aug-28 08:33N 57°06' E 011°38'1212.0
2014-Aug-28 07:33N 57°17' E 011°31'1212.0
2014-Aug-28 06:33N 57°28' E 011°23'1211.7
2014-Aug-28 05:33N 57°36' E 011°07'1212.1
2014-Aug-28 04:33N 57°45' E 010°51'1010.4
2014-Aug-28 03:33N 57°49' E 010°33'1211.6
2014-Aug-28 02:33N 57°47' E 010°11'3511.6
2014-Aug-27 23:34N 57°38' E 009°08'1211.8
2014-Aug-27 22:33N 57°32' E 008°49'1212.0
2014-Aug-27 21:33N 57°28' E 008°28'1212.1
2014-Aug-27 20:32N 57°22' E 008°08'31711.3
2014-Aug-26 16:30N 52°52' E 003°17'1212.4
2014-Aug-26 15:32N 52°41' E 003°08'1313.2
2014-Aug-26 14:33N 52°28' E 003°11'1414.2
2014-Aug-26 13:33N 52°15' E 003°20'1514.3
2014-Aug-26 12:30N 52°06' E 003°40'1212.8
2014-Aug-26 11:33N 52°01' E 003°58'1010.4
2014-Aug-26 10:33N 51°56' E 004°12'0 0.3
2014-Aug-26 09:31N 51°55' E 004°12'0 0.0
2014-Aug-26 08:31N 51°55' E 004°12'0 0.0
2014-Aug-26 07:31N 51°55' E 004°12'0 0.0
2014-Aug-26 06:31N 51°55' E 004°12'0 0.0
2014-Aug-26 05:31N 51°55' E 004°12'0 0.0
2014-Aug-26 04:31N 51°55' E 004°12'0 0.0
2014-Aug-26 03:31N 51°55' E 004°12'0 0.0
2014-Aug-26 02:31N 51°55' E 004°12'0 0.0
2014-Aug-26 01:31N 51°55' E 004°12'0 0.0
2014-Aug-26 00:31N 51°55' E 004°12'0 0.0
2014-Aug-25 23:28N 51°55' E 004°12'0 0.0
2014-Aug-25 22:31N 51°55' E 004°12'0 0.0
2014-Aug-25 21:31N 51°55' E 004°12'0 0.0
2014-Aug-25 20:25N 51°55' E 004°12'0 0.0
2014-Aug-25 19:28N 51°55' E 004°12'0 0.0
2014-Aug-25 18:31N 51°55' E 004°12'0 0.0
2014-Aug-25 17:22N 51°55' E 004°12'0 0.0
2014-Aug-25 16:28N 51°55' E 004°12'0 0.0
2014-Aug-25 15:31N 51°55' E 004°12'0 0.0
2014-Aug-25 14:31N 51°55' E 004°12'0 0.0
2014-Aug-25 13:31N 51°55' E 004°12'0 0.0
2014-Aug-25 12:31N 51°55' E 004°12'0 0.0
2014-Aug-25 11:31N 51°55' E 004°12'0 0.0
2014-Aug-25 10:31N 51°55' E 004°12'0 0.0
2014-Aug-25 09:31N 51°55' E 004°12'0 0.0
2014-Aug-25 08:31N 51°55' E 004°12'0 0.0
2014-Aug-25 07:31N 51°55' E 004°12'0 0.0
2014-Aug-25 06:25N 51°55' E 004°12'0 0.0
2014-Aug-25 05:28N 51°55' E 004°12'0 0.0
2014-Aug-25 04:31N 51°55' E 004°12'0 0.0
2014-Aug-25 03:31N 51°55' E 004°12'0 0.0
2014-Aug-25 02:31N 51°55' E 004°12'0 0.0
2014-Aug-25 01:31N 51°55' E 004°12'0 0.0
2014-Aug-25 00:31N 51°55' E 004°12'0 0.0
2014-Aug-24 23:31N 51°55' E 004°12'0 0.0
2014-Aug-24 22:22N 51°55' E 004°12'0 0.0
2014-Aug-24 21:28N 51°55' E 004°12'0 0.0
2014-Aug-24 20:28N 51°55' E 004°12'0 0.0
2014-Aug-24 19:28N 51°55' E 004°12'0 0.0
2014-Aug-24 18:28N 51°55' E 004°12'0 0.0
2014-Aug-24 17:31N 51°55' E 004°12'0 0.0
2014-Aug-24 16:31N 51°55' E 004°12'0 0.0
2014-Aug-24 15:31N 51°55' E 004°12'0 0.0
2014-Aug-24 14:31N 51°55' E 004°12'0 0.0
2014-Aug-24 13:31N 51°55' E 004°12'0 0.0
2014-Aug-24 12:31N 51°55' E 004°12'0 0.0
2014-Aug-24 11:31N 51°55' E 004°12'0 0.0
2014-Aug-24 10:13N 51°55' E 004°12'0 0.0
2014-Aug-24 09:25N 51°55' E 004°12'0 0.0
2014-Aug-24 08:31N 51°55' E 004°12'0 0.0
2014-Aug-24 07:31N 51°55' E 004°12'0 0.0
2014-Aug-24 06:31N 51°55' E 004°12'0 0.0
2014-Aug-24 05:31N 51°55' E 004°12'0 0.0
2014-Aug-24 04:28N 51°55' E 004°12'0 0.0
2014-Aug-24 03:31N 51°55' E 004°12'0 0.0
2014-Aug-24 02:31N 51°55' E 004°12'0 0.0
2014-Aug-24 01:28N 51°55' E 004°12'0 0.0
2014-Aug-24 00:31N 51°55' E 004°12'0 0.0
2014-Aug-23 23:31N 51°55' E 004°12'0 0.0
2014-Aug-23 22:31N 51°55' E 004°12'0 0.0
2014-Aug-23 21:31N 51°55' E 004°12'0 0.0
2014-Aug-23 20:31N 51°55' E 004°12'0 0.0
2014-Aug-23 19:31N 51°55' E 004°12'52 2.9
2014-Aug-23 01:32N 51°51' E 002°47'10 9.8
2014-Aug-23 00:31N 52°00' E 002°41'29210.4
2014-Aug-21 20:33N 56°00' W 002°01'1010.0
2014-Aug-21 19:33N 56°04' W 002°17'1010.1
2014-Aug-21 18:33N 56°07' W 002°34'1010.3
2014-Aug-21 17:33N 56°06' W 002°53'9 8.8
2014-Aug-21 16:33N 56°03' W 003°08'8 7.7
2014-Aug-21 15:33N 56°01' W 003°21'  

Dump ship's entire track history